createdAt,value
2022-08-12T00:01:10.964Z,3.50
2022-08-12T00:03:57.025Z,3.50
2022-08-12T00:06:44.069Z,3.63
2022-08-12T00:09:32.139Z,3.20
2022-08-12T00:12:18.188Z,3.67
2022-08-12T00:15:03.938Z,3.17
2022-08-12T00:17:50.432Z,3.33
2022-08-12T00:20:36.562Z,3.33
2022-08-12T00:23:22.853Z,3.00
2022-08-12T00:26:22.320Z,3.40
2022-08-12T00:29:11.369Z,3.10
2022-08-12T00:31:57.519Z,3.50
2022-08-12T00:34:43.504Z,3.40
2022-08-12T00:37:29.656Z,3.50
2022-08-12T00:40:16.212Z,3.43
2022-08-12T00:42:48.525Z,3.50
2022-08-12T00:45:17.001Z,3.17
2022-08-12T00:47:45.858Z,3.30
2022-08-12T00:50:18.493Z,3.40
2022-08-12T00:52:47.649Z,3.40
2022-08-12T00:55:19.774Z,3.20
2022-08-12T00:57:52.078Z,3.30
2022-08-12T01:00:23.018Z,3.17
2022-08-12T01:02:53.198Z,3.40
2022-08-12T01:05:40.888Z,3.20
2022-08-12T01:08:28.260Z,3.30
2022-08-12T01:11:15.594Z,3.30
2022-08-12T01:13:48.896Z,3.40
2022-08-12T01:16:22.922Z,3.53
2022-08-12T01:18:52.858Z,3.70
2022-08-12T01:21:45.354Z,3.30
2022-08-12T01:24:34.100Z,3.60
2022-08-12T01:27:07.492Z,3.63
2022-08-12T01:29:45.025Z,3.27
2022-08-12T01:32:16.249Z,3.50
2022-08-12T01:34:51.775Z,3.23
2022-08-12T01:37:23.472Z,3.37
2022-08-12T01:40:34.371Z,3.53
2022-08-12T01:42:47.001Z,3.37
2022-08-12T01:45:18.279Z,3.60
2022-08-12T01:48:05.307Z,3.63
2022-08-12T01:50:43.197Z,3.80
2022-08-12T01:53:16.255Z,3.30
2022-08-12T01:55:49.331Z,3.30
2022-08-12T01:58:27.264Z,3.43
2022-08-12T02:00:59.515Z,3.93
2022-08-12T02:04:05.346Z,3.70
2022-08-12T02:07:00.961Z,3.83
2022-08-12T02:10:03.291Z,3.80
2022-08-12T02:12:48.476Z,3.83
2022-08-12T02:15:28.650Z,4.23
2022-08-12T02:18:06.133Z,4.10
2022-08-12T02:20:51.969Z,4.10
2022-08-12T02:23:27.191Z,4.00
2022-08-12T02:26:00.111Z,4.10
2022-08-12T02:28:30.949Z,4.13
2022-08-12T02:31:05.240Z,4.10
2022-08-12T02:33:34.479Z,3.73
2022-08-12T02:36:03.642Z,4.20
2022-08-12T02:38:33.281Z,4.20
2022-08-12T02:41:06.171Z,4.00
2022-08-12T02:43:41.672Z,4.20
2022-08-12T02:46:15.083Z,4.03
2022-08-12T02:48:49.142Z,4.30
2022-08-12T02:51:20.760Z,4.30
2022-08-12T02:54:02.958Z,4.20
2022-08-12T02:56:34.283Z,4.40
2022-08-12T02:59:04.648Z,4.20
2022-08-12T03:01:35.720Z,5.40
2022-08-12T03:04:24.591Z,4.40
2022-08-12T03:07:03.176Z,4.37
2022-08-12T03:09:50.710Z,4.30
2022-08-12T03:12:26.648Z,4.43
2022-08-12T03:15:09.987Z,4.40
2022-08-12T03:18:27.629Z,4.50
2022-08-12T03:20:41.034Z,4.90
2022-08-12T03:23:19.456Z,4.70
2022-08-12T03:25:58.944Z,4.70
2022-08-12T03:28:46.643Z,4.80
2022-08-12T03:31:16.838Z,4.50
2022-08-12T03:34:00.511Z,4.37
2022-08-12T03:36:31.395Z,4.43
2022-08-12T03:42:02.765Z,4.43
2022-08-12T03:44:53.777Z,4.60
2022-08-12T03:47:47.737Z,4.70
2022-08-12T03:50:33.766Z,4.47
2022-08-12T03:53:20.555Z,4.93
2022-08-12T03:56:06.265Z,4.80
2022-08-12T03:58:54.060Z,4.60
2022-08-12T04:01:23.613Z,4.77
2022-08-12T04:03:55.345Z,4.80
2022-08-12T04:06:35.048Z,4.90
2022-08-12T04:09:16.251Z,4.87
2022-08-12T04:12:04.624Z,4.77
2022-08-12T04:14:35.057Z,4.60
2022-08-12T04:17:04.779Z,4.93
2022-08-12T04:19:33.279Z,5.00
2022-08-12T04:22:03.721Z,4.80
2022-08-12T04:24:35.377Z,5.00
2022-08-12T04:27:06.362Z,4.60
2022-08-12T04:30:29.654Z,5.03
2022-08-12T04:32:26.097Z,4.70
2022-08-12T04:34:55.329Z,5.17
2022-08-12T04:37:24.487Z,5.07
2022-08-12T04:39:54.467Z,4.80
2022-08-12T04:42:23.934Z,5.00
2022-08-12T04:44:54.041Z,4.73
2022-08-12T04:47:24.440Z,4.83
2022-08-12T04:49:53.009Z,4.90
2022-08-12T04:52:21.807Z,5.00
2022-08-12T04:54:50.837Z,4.80
2022-08-12T04:57:19.266Z,5.20
2022-08-12T04:59:49.030Z,4.97
2022-08-12T05:02:22.645Z,4.97
2022-08-12T05:04:52.807Z,4.80
2022-08-12T05:07:24.331Z,5.00
2022-08-12T05:09:55.335Z,4.80
2022-08-12T05:12:38.931Z,4.73
2022-08-12T05:15:19.258Z,5.10
2022-08-12T05:17:59.888Z,4.90
2022-08-12T05:20:30.981Z,4.00
2022-08-12T05:23:12.940Z,4.13
2022-08-12T05:25:43.367Z,3.70
2022-08-12T05:28:13.855Z,3.93
2022-08-12T05:30:42.943Z,4.20
2022-08-12T05:33:15.680Z,4.37
2022-08-12T05:35:47.708Z,4.27
2022-08-12T05:38:34.737Z,4.23
2022-08-12T05:41:05.415Z,4.37
2022-08-12T05:43:34.944Z,4.10
2022-08-12T05:46:03.378Z,4.10
2022-08-12T05:48:33.210Z,4.20
2022-08-12T05:51:01.666Z,4.40
2022-08-12T05:53:30.102Z,4.10
2022-08-12T05:55:58.580Z,4.17
2022-08-12T05:58:27.312Z,4.27
2022-08-12T06:00:56.993Z,4.03
2022-08-12T06:03:25.634Z,3.90
2022-08-12T06:05:57.176Z,3.47
2022-08-12T06:08:27.503Z,3.77
2022-08-12T06:10:57.446Z,3.83
2022-08-12T06:13:52.883Z,4.10
2022-08-12T06:16:16.348Z,4.20
2022-08-12T06:18:45.586Z,3.73
2022-08-12T06:21:21.455Z,4.17
2022-08-12T06:23:50.354Z,3.60
2022-08-12T06:26:20.445Z,3.53
2022-08-12T06:28:50.931Z,4.30
2022-08-12T06:31:27.961Z,3.47
2022-08-12T06:35:21.665Z,3.70
2022-08-12T06:36:47.025Z,3.43
2022-08-12T06:39:17.977Z,4.00
2022-08-12T06:42:32.245Z,3.53
2022-08-12T06:44:52.592Z,3.73
2022-08-12T06:47:22.261Z,3.70
2022-08-12T06:49:52.639Z,4.10
2022-08-12T06:52:25.173Z,3.53
2022-08-12T06:54:55.438Z,3.73
2022-08-12T06:58:01.976Z,3.50
2022-08-12T07:00:17.323Z,3.40
2022-08-12T07:02:46.774Z,3.70
2022-08-12T07:05:15.210Z,3.30
2022-08-12T07:07:48.028Z,3.30
2022-08-12T07:10:18.084Z,3.40
2022-08-12T07:12:46.759Z,3.30
2022-08-12T07:15:15.443Z,3.00
2022-08-12T07:17:43.889Z,3.30
2022-08-12T07:20:42.582Z,3.47
2022-08-12T07:23:07.292Z,3.53
2022-08-12T07:25:40.312Z,3.60
2022-08-12T07:28:16.350Z,3.23
2022-08-12T07:30:46.777Z,3.10
2022-08-12T07:33:16.890Z,3.30
2022-08-12T07:35:48.438Z,3.20
2022-08-12T07:38:29.366Z,2.97
2022-08-12T07:41:03.214Z,3.07
2022-08-12T07:43:33.569Z,2.90
2022-08-12T07:46:02.605Z,2.90
2022-08-12T07:48:38.076Z,3.20
2022-08-12T07:51:07.144Z,3.30
2022-08-12T07:53:54.831Z,2.70
2022-08-12T07:56:27.864Z,3.47
2022-08-12T07:58:59.511Z,3.00
2022-08-12T08:01:28.823Z,3.20
2022-08-12T08:04:18.954Z,2.93
2022-08-12T08:06:48.972Z,2.70
2022-08-12T08:09:21.330Z,2.83
2022-08-12T08:12:07.996Z,2.97
2022-08-12T08:14:37.042Z,2.70
2022-08-12T08:17:06.652Z,2.63
2022-08-12T08:20:00.250Z,2.90
2022-08-12T08:22:40.434Z,3.00
2022-08-12T08:25:35.223Z,2.83
2022-08-12T08:28:04.321Z,2.83
2022-08-12T08:30:34.317Z,2.90
2022-08-12T08:33:02.826Z,2.60
2022-08-12T08:35:48.468Z,2.40
2022-08-12T08:38:31.830Z,2.53
2022-08-12T08:42:14.031Z,2.60
2022-08-12T08:44:11.262Z,2.50
2022-08-12T08:46:40.415Z,2.80
2022-08-12T08:49:09.209Z,2.63
2022-08-12T08:51:39.054Z,2.50
2022-08-12T08:54:08.715Z,2.58
2022-08-12T08:56:45.420Z,2.55
2022-08-12T08:59:14.862Z,2.90
2022-08-12T09:01:44.179Z,2.85
2022-08-12T09:05:07.545Z,2.60
2022-08-12T09:07:17.713Z,2.80
2022-08-12T09:10:02.299Z,2.63
2022-08-12T09:15:41.609Z,2.60
2022-08-12T09:18:11.239Z,2.70
2022-08-12T09:20:42.403Z,2.50
2022-08-12T09:23:59.027Z,2.80
2022-08-12T09:26:04.085Z,2.40
2022-08-12T09:28:54.023Z,2.20
2022-08-12T09:32:05.947Z,2.45
2022-08-12T09:34:29.456Z,2.65
2022-08-12T09:37:18.894Z,2.50
2022-08-12T09:40:02.372Z,2.30
2022-08-12T09:43:15.074Z,2.63
2022-08-12T09:46:11.902Z,2.42
2022-08-12T09:48:39.214Z,2.33
2022-08-12T09:51:11.005Z,2.00
2022-08-12T09:54:09.060Z,2.30
2022-08-12T09:57:00.177Z,2.47
2022-08-12T10:00:15.532Z,2.40
2022-08-12T10:02:42.035Z,2.30
2022-08-12T10:05:13.764Z,2.30
2022-08-12T10:07:46.176Z,2.20
2022-08-12T10:10:24.005Z,2.28
2022-08-12T10:13:34.902Z,2.58
2022-08-12T10:16:06.359Z,2.15
2022-08-12T10:18:52.381Z,2.15
2022-08-12T10:21:23.619Z,2.05
2022-08-12T10:23:55.079Z,2.03
2022-08-12T10:26:45.716Z,1.80
2022-08-12T10:30:38.974Z,2.10
2022-08-12T10:32:44.945Z,2.08
2022-08-12T10:35:15.767Z,2.10
2022-08-12T10:38:33.551Z,2.10
2022-08-12T10:40:54.779Z,2.45
2022-08-12T10:43:55.157Z,2.13
2022-08-12T10:46:31.411Z,1.90
2022-08-12T10:49:06.674Z,2.10
2022-08-12T10:52:32.521Z,2.10
2022-08-12T10:54:41.401Z,1.88
2022-08-12T10:57:18.361Z,1.83
2022-08-12T11:00:35.885Z,2.10
2022-08-12T11:04:20.845Z,2.13
2022-08-12T11:07:08.844Z,1.92
2022-08-12T11:08:42.789Z,1.77
2022-08-12T11:11:16.876Z,1.80
2022-08-12T11:13:48.886Z,1.90
2022-08-12T11:16:21.934Z,1.70
2022-08-12T11:18:55.583Z,1.80
2022-08-12T11:21:39.603Z,1.85
2022-08-12T11:24:30.168Z,1.75
2022-08-12T11:27:00.750Z,1.60
2022-08-12T11:30:06.127Z,1.50
2022-08-12T11:32:20.837Z,1.60
2022-08-12T11:34:52.705Z,1.50
2022-08-12T11:37:26.426Z,1.60
2022-08-12T11:42:37.283Z,1.50
2022-08-12T11:45:16.556Z,1.42
2022-08-12T11:47:45.923Z,1.30
2022-08-12T11:50:19.297Z,1.52
2022-08-12T11:52:55.333Z,1.55
2022-08-12T11:55:29.804Z,1.50
2022-08-12T11:58:17.241Z,1.50
2022-08-12T12:03:44.176Z,1.38
2022-08-12T12:06:16.864Z,1.30
2022-08-12T12:08:50.856Z,1.33
2022-08-12T12:11:21.841Z,1.48
2022-08-12T12:14:06.274Z,1.33
2022-08-12T12:16:40.012Z,1.27
2022-08-12T12:19:10.694Z,1.45
2022-08-12T12:21:48.017Z,1.40
2022-08-12T12:24:21.463Z,1.30
2022-08-12T12:26:59.565Z,1.50
2022-08-12T12:30:13.889Z,1.33
2022-08-12T12:32:28.955Z,1.40
2022-08-12T12:35:44.402Z,1.42
2022-08-12T12:38:05.133Z,1.20
2022-08-12T12:40:43.776Z,1.30
2022-08-12T12:43:14.693Z,1.25
2022-08-12T12:45:46.334Z,2.17
2022-08-12T12:48:17.369Z,1.60
2022-08-12T12:50:51.686Z,2.10
2022-08-12T12:54:05.330Z,1.60
2022-08-12T12:56:16.417Z,1.40
2022-08-12T12:58:49.796Z,1.85
2022-08-12T13:01:26.792Z,6.53
2022-08-12T13:04:02.691Z,2.55
2022-08-12T13:06:32.414Z,5.88
2022-08-12T13:09:03.978Z,1.70
2022-08-12T13:11:41.668Z,4.53
2022-08-12T13:14:28.261Z,2.10
2022-08-12T13:17:02.614Z,1.50
2022-08-12T13:19:43.369Z,1.80
2022-08-12T13:22:21.337Z,1.60
2022-08-12T13:24:55.582Z,1.90
2022-08-12T13:27:34.626Z,1.80
2022-08-12T13:30:11.039Z,2.17
2022-08-12T13:32:42.575Z,1.60
2022-08-12T13:35:20.285Z,1.52
2022-08-12T13:38:02.529Z,1.40
2022-08-12T13:40:34.029Z,1.40
2022-08-12T13:43:06.964Z,1.60
2022-08-12T13:45:37.314Z,1.30
2022-08-12T13:48:07.720Z,1.40
2022-08-12T13:50:38.392Z,1.40
2022-08-12T13:53:24.532Z,1.30
2022-08-12T13:56:01.605Z,1.30
2022-08-12T13:58:32.804Z,1.50
2022-08-12T14:01:06.499Z,1.52
2022-08-12T14:03:50.897Z,1.30
2022-08-12T14:06:20.934Z,1.40
2022-08-12T14:08:50.721Z,1.23
2022-08-12T14:11:25.512Z,1.30
2022-08-12T14:14:03.613Z,1.45
2022-08-12T14:16:48.336Z,1.40
2022-08-12T14:19:22.757Z,1.30
2022-08-12T14:22:01.005Z,1.40
2022-08-12T14:24:35.841Z,1.50
2022-08-12T14:27:09.299Z,1.40
2022-08-12T14:30:04.463Z,1.70
2022-08-12T14:32:35.800Z,1.40
2022-08-12T14:35:09.450Z,1.50
2022-08-12T14:37:57.784Z,1.30
2022-08-12T14:40:29.603Z,1.40
2022-08-12T14:42:59.470Z,1.38
2022-08-12T14:45:37.175Z,1.60
2022-08-12T14:48:19.574Z,1.50
2022-08-12T14:52:10.475Z,1.35
2022-08-12T14:55:18.205Z,1.40
2022-08-12T14:57:05.624Z,1.52
2022-08-12T14:59:57.517Z,1.50
2022-08-12T15:02:28.720Z,1.40
2022-08-12T15:05:00.826Z,1.42
2022-08-12T15:07:34.052Z,1.40
2022-08-12T15:10:32.417Z,1.30
2022-08-12T15:13:07.392Z,1.35
2022-08-12T15:15:45.521Z,1.30
2022-08-12T15:18:20.898Z,1.40
2022-08-12T15:20:54.630Z,1.40
2022-08-12T15:23:24.484Z,1.30
2022-08-12T15:26:03.361Z,1.40
2022-08-12T15:28:35.455Z,1.45
2022-08-12T15:31:21.168Z,1.50
2022-08-12T15:33:57.425Z,1.40
2022-08-12T15:36:53.718Z,2.17
2022-08-12T15:39:17.907Z,1.70
2022-08-12T15:41:50.389Z,1.60
2022-08-12T15:44:41.788Z,2.70
2022-08-12T15:47:16.373Z,1.70
2022-08-12T15:49:59.816Z,1.40
2022-08-12T15:52:36.433Z,1.83
2022-08-12T15:55:11.683Z,4.13
2022-08-12T15:57:50.474Z,3.10
2022-08-12T16:00:33.366Z,2.50
2022-08-12T16:03:05.431Z,2.03
2022-08-12T16:06:11.925Z,1.77
2022-08-12T16:08:28.011Z,1.75
2022-08-12T16:10:57.931Z,1.50
2022-08-12T16:13:34.620Z,1.50
2022-08-12T16:16:22.822Z,1.52
2022-08-12T16:19:02.078Z,1.42
2022-08-12T16:21:51.229Z,1.50
2022-08-12T16:24:23.607Z,1.40
2022-08-12T16:26:54.185Z,1.88
2022-08-12T16:29:52.430Z,1.63
2022-08-12T16:32:31.843Z,2.10
2022-08-12T16:35:01.612Z,1.80
2022-08-12T16:38:25.039Z,1.88
2022-08-12T16:40:25.777Z,1.38
2022-08-12T16:43:04.858Z,1.98
2022-08-12T16:46:05.428Z,1.80
2022-08-12T16:48:39.015Z,1.70
2022-08-12T16:51:10.917Z,1.50
2022-08-12T16:53:45.158Z,1.40
2022-08-12T16:56:18.108Z,1.45
2022-08-12T16:58:48.658Z,1.40
2022-08-12T17:01:21.748Z,1.25
2022-08-12T17:04:08.221Z,1.73
2022-08-12T17:06:44.050Z,1.85
2022-08-12T17:09:17.913Z,1.50
2022-08-12T17:11:50.832Z,1.42
2022-08-12T17:14:24.747Z,1.60
2022-08-12T17:16:56.051Z,1.60
2022-08-12T17:20:35.364Z,1.50
2022-08-12T17:22:22.106Z,1.50
2022-08-12T17:24:55.615Z,1.58
2022-08-12T17:27:30.928Z,1.50
2022-08-12T17:30:08.616Z,1.60
2022-08-12T17:32:44.396Z,1.67
2022-08-12T17:35:37.029Z,3.70
2022-08-12T17:38:11.929Z,1.45
2022-08-12T17:40:46.896Z,1.50
2022-08-12T17:43:54.879Z,1.70
2022-08-12T17:46:12.791Z,1.77
2022-08-12T17:48:54.926Z,1.75
2022-08-12T17:51:31.417Z,1.90
2022-08-12T17:54:10.906Z,1.73
2022-08-12T17:56:43.673Z,2.00
2022-08-12T17:59:14.821Z,2.80
2022-08-12T18:02:08.420Z,2.70
2022-08-12T18:04:37.851Z,2.05
2022-08-12T18:07:26.438Z,1.90
2022-08-12T18:09:58.300Z,1.77
2022-08-12T18:12:40.161Z,1.90
2022-08-12T18:15:26.799Z,1.80
2022-08-12T18:18:16.539Z,2.00
2022-08-12T18:20:46.582Z,2.17
2022-08-12T18:23:15.177Z,1.88
2022-08-12T18:26:15.416Z,1.80
2022-08-12T18:28:48.195Z,1.90
2022-08-12T18:31:44.505Z,1.88
2022-08-12T18:34:20.627Z,1.80
2022-08-12T18:36:54.075Z,2.00
2022-08-12T18:39:24.018Z,1.80
2022-08-12T18:41:52.680Z,2.22
2022-08-12T18:44:25.648Z,1.88
2022-08-12T18:46:56.171Z,2.00
2022-08-12T18:49:31.923Z,2.10
2022-08-12T18:52:04.752Z,2.10
2022-08-12T18:54:36.371Z,2.13
2022-08-12T18:57:16.476Z,2.30
2022-08-12T19:00:01.851Z,2.13
2022-08-12T19:02:36.321Z,1.98
2022-08-12T19:05:11.141Z,3.85
2022-08-12T19:07:58.124Z,3.80
2022-08-12T19:10:33.219Z,3.38
2022-08-12T19:13:24.744Z,2.30
2022-08-12T19:15:57.993Z,2.10
2022-08-12T19:18:31.309Z,2.30
2022-08-12T19:21:06.432Z,2.00
2022-08-12T19:23:35.927Z,1.88
2022-08-12T19:26:05.350Z,2.03
2022-08-12T19:28:39.618Z,2.13
2022-08-12T19:31:55.960Z,1.98
2022-08-12T19:37:26.659Z,2.40
2022-08-12T19:40:08.830Z,2.15
2022-08-12T19:42:57.391Z,2.03
2022-08-12T19:45:43.653Z,2.13
2022-08-12T19:48:18.007Z,2.17
2022-08-12T19:50:52.427Z,2.00
2022-08-12T19:53:22.770Z,2.38
2022-08-12T19:55:53.827Z,2.90
2022-08-12T19:58:24.152Z,2.40
2022-08-12T20:00:54.735Z,2.50
2022-08-12T20:03:39.561Z,2.15
2022-08-12T20:06:14.115Z,2.10
2022-08-12T20:08:49.206Z,2.70
2022-08-12T20:12:12.014Z,2.50
2022-08-12T20:14:18.129Z,2.15
2022-08-12T20:16:51.901Z,2.38
2022-08-12T20:19:53.248Z,2.10
2022-08-12T20:22:24.793Z,1.92
2022-08-12T20:25:01.314Z,1.92
2022-08-12T20:28:05.372Z,1.95
2022-08-12T20:30:37.609Z,2.10
2022-08-12T20:33:17.585Z,2.10
2022-08-12T20:36:13.394Z,2.00
2022-08-12T20:38:46.688Z,2.13
2022-08-12T20:41:16.267Z,2.10
2022-08-12T20:43:49.580Z,2.10
2022-08-12T20:46:19.909Z,2.00
2022-08-12T20:48:55.071Z,2.50
2022-08-12T20:51:55.273Z,2.30
2022-08-12T20:54:19.619Z,2.00
2022-08-12T20:56:49.548Z,2.13
2022-08-12T20:59:21.446Z,2.10
2022-08-12T21:01:53.954Z,2.20
2022-08-12T21:04:40.412Z,2.17
2022-08-12T21:07:14.359Z,2.33
2022-08-12T21:09:47.686Z,2.20
2022-08-12T21:12:30.962Z,2.40
2022-08-12T21:15:22.951Z,2.00
2022-08-12T21:18:08.733Z,2.10
2022-08-12T21:20:42.280Z,1.90
2022-08-12T21:23:13.854Z,2.20
2022-08-12T21:25:45.842Z,2.00
2022-08-12T21:28:15.753Z,2.40
2022-08-12T21:31:11.135Z,2.40
2022-08-12T21:33:58.534Z,2.30
2022-08-12T21:36:22.798Z,2.47
2022-08-12T21:39:20.411Z,2.27
2022-08-12T21:41:53.165Z,2.40
2022-08-12T21:45:44.491Z,2.23
2022-08-12T21:47:20.049Z,2.77
2022-08-12T21:50:03.741Z,2.70
2022-08-12T21:52:37.367Z,2.60
2022-08-12T21:55:19.325Z,2.47
2022-08-12T21:57:54.920Z,2.57
2022-08-12T22:00:36.819Z,2.43
2022-08-12T22:04:04.397Z,2.50
2022-08-12T22:06:31.783Z,2.50
2022-08-12T22:09:15.461Z,2.70
2022-08-12T22:11:56.491Z,2.30
2022-08-12T22:14:30.089Z,2.37
2022-08-12T22:17:01.309Z,2.67
2022-08-12T22:19:33.654Z,2.40
2022-08-12T22:22:05.468Z,2.57
2022-08-12T22:24:34.428Z,2.53
2022-08-12T22:27:18.153Z,2.60
2022-08-12T22:30:16.096Z,2.40
2022-08-12T22:32:50.482Z,2.63
2022-08-12T22:35:56.131Z,2.50
2022-08-12T22:38:29.350Z,2.40
2022-08-12T22:41:00.754Z,2.23
2022-08-12T22:43:59.099Z,2.47
2022-08-12T22:46:53.198Z,2.40
2022-08-12T22:49:36.527Z,5.27
2022-08-12T22:52:12.925Z,2.40
2022-08-12T22:54:58.034Z,2.37
2022-08-12T22:57:53.330Z,2.30
2022-08-12T23:00:23.512Z,2.00
2022-08-12T23:03:00.797Z,1.87
2022-08-12T23:05:57.844Z,2.37
2022-08-12T23:08:23.386Z,2.00
2022-08-12T23:10:59.175Z,1.70
2022-08-12T23:13:45.672Z,2.00
2022-08-12T23:16:28.103Z,2.00
2022-08-12T23:19:01.413Z,2.10
2022-08-12T23:22:03.567Z,2.00
2022-08-12T23:24:30.135Z,2.07
2022-08-12T23:27:16.628Z,2.00
2022-08-12T23:30:17.823Z,2.10
2022-08-12T23:32:37.487Z,2.20
2022-08-12T23:35:09.097Z,2.20
2022-08-12T23:37:53.940Z,2.00
2022-08-12T23:40:25.770Z,2.10
2022-08-12T23:42:55.290Z,2.30
2022-08-12T23:45:31.168Z,2.30
2022-08-12T23:48:01.286Z,2.13
2022-08-12T23:50:33.896Z,2.30
2022-08-12T23:53:06.435Z,2.10
2022-08-12T23:55:45.883Z,2.30
2022-08-12T23:58:20.749Z,2.40
